sensor_id;sensor_type;location;lat;lon;timestamp;pressure;altitude;pressure_sealevel;temperature;humidity
34241;BME280;20503;50.200;19.508;2023-02-11T00:01:09;103318.27;;;-1.73;100.00
34241;BME280;20503;50.200;19.508;2023-02-11T00:06:11;103303.21;;;-1.76;100.00
34241;BME280;20503;50.200;19.508;2023-02-11T00:11:20;103302.41;;;-1.78;100.00
34241;BME280;20503;50.200;19.508;2023-02-11T00:16:25;103297.98;;;-1.79;100.00
34241;BME280;20503;50.200;19.508;2023-02-11T00:21:33;103306.84;;;-1.77;100.00
34241;BME280;20503;50.200;19.508;2023-02-11T00:26:40;103304.00;;;-1.74;100.00
34241;BME280;20503;50.200;19.508;2023-02-11T00:31:49;103303.21;;;-1.76;100.00
34241;BME280;20503;50.200;19.508;2023-02-11T00:36:56;103287.11;;;-1.76;100.00
34241;BME280;20503;50.200;19.508;2023-02-11T00:42:04;103271.25;;;-1.82;100.00
34241;BME280;20503;50.200;19.508;2023-02-11T00:47:13;103251.08;;;-1.90;100.00
34241;BME280;20503;50.200;19.508;2023-02-11T00:52:21;103259.13;;;-1.90;100.00
34241;BME280;20503;50.200;19.508;2023-02-11T00:57:29;103244.25;;;-1.97;100.00
34241;BME280;20503;50.200;19.508;2023-02-11T01:02:37;103234.80;;;-2.05;100.00
34241;BME280;20503;50.200;19.508;2023-02-11T01:07:46;103223.18;;;-2.06;100.00
34241;BME280;20503;50.200;19.508;2023-02-11T01:12:54;103217.91;;;-2.07;100.00
34241;BME280;20503;50.200;19.508;2023-02-11T01:18:03;103210.14;;;-2.13;100.00
34241;BME280;20503;50.200;19.508;2023-02-11T01:23:09;103178.88;;;-2.14;100.00
34241;BME280;20503;50.200;19.508;2023-02-11T01:28:24;103172.66;;;-2.15;100.00
34241;BME280;20503;50.200;19.508;2023-02-11T01:33:28;103153.67;;;-2.10;100.00
34241;BME280;20503;50.200;19.508;2023-02-11T01:38:33;103130.93;;;-2.02;100.00
34241;BME280;20503;50.200;19.508;2023-02-11T01:43:43;103126.87;;;-1.92;100.00
34241;BME280;20503;50.200;19.508;2023-02-11T01:48:58;103158.85;;;-1.87;100.00
34241;BME280;20503;50.200;19.508;2023-02-11T01:54:02;103158.79;;;-1.86;100.00
34241;BME280;20503;50.200;19.508;2023-02-11T01:59:23;103164.16;;;-1.86;100.00
34241;BME280;20503;50.200;19.508;2023-02-11T02:04:33;103185.33;;;-1.80;100.00
34241;BME280;20503;50.200;19.508;2023-02-11T02:09:41;103173.29;;;-1.72;100.00
34241;BME280;20503;50.200;19.508;2023-02-11T02:14:44;103139.20;;;-1.70;100.00
34241;BME280;20503;50.200;19.508;2023-02-11T02:25:12;103142.32;;;-1.60;100.00
34241;BME280;20503;50.200;19.508;2023-02-11T02:40:48;103094.71;;;-1.38;100.00
34241;BME280;20503;50.200;19.508;2023-02-11T02:45:53;103063.43;;;-1.39;100.00
34241;BME280;20503;50.200;19.508;2023-02-11T02:51:05;103066.81;;;-1.36;100.00
34241;BME280;20503;50.200;19.508;2023-02-11T02:56:17;103038.94;;;-1.33;100.00
34241;BME280;20503;50.200;19.508;2023-02-11T03:06:47;103016.06;;;-1.23;100.00
34241;BME280;20503;50.200;19.508;2023-02-11T03:11:48;103009.74;;;-1.22;100.00
34241;BME280;20503;50.200;19.508;2023-02-11T03:16:51;103026.54;;;-1.19;100.00
34241;BME280;20503;50.200;19.508;2023-02-11T03:21:55;103004.99;;;-1.17;100.00
34241;BME280;20503;50.200;19.508;2023-02-11T03:27:01;103006.49;;;-1.12;100.00
34241;BME280;20503;50.200;19.508;2023-02-11T03:32:16;102995.42;;;-1.06;100.00
34241;BME280;20503;50.200;19.508;2023-02-11T03:42:37;102988.80;;;-0.99;100.00
34241;BME280;20503;50.200;19.508;2023-02-11T03:47:45;102985.42;;;-0.87;100.00
34241;BME280;20503;50.200;19.508;2023-02-11T03:52:48;102961.18;;;-0.85;100.00
34241;BME280;20503;50.200;19.508;2023-02-11T03:57:50;102964.41;;;-0.79;100.00
34241;BME280;20503;50.200;19.508;2023-02-11T04:02:52;102956.88;;;-0.72;100.00
34241;BME280;20503;50.200;19.508;2023-02-11T04:07:53;102940.47;;;-0.68;100.00
34241;BME280;20503;50.200;19.508;2023-02-11T04:12:55;102931.45;;;-0.67;100.00
34241;BME280;20503;50.200;19.508;2023-02-11T04:17:57;102909.70;;;-0.78;100.00
34241;BME280;20503;50.200;19.508;2023-02-11T04:22:58;102905.45;;;-0.82;100.00
34241;BME280;20503;50.200;19.508;2023-02-11T04:28:00;102894.57;;;-0.96;100.00
34241;BME280;20503;50.200;19.508;2023-02-11T04:33:03;102891.10;;;-0.98;100.00
34241;BME280;20503;50.200;19.508;2023-02-11T04:38:09;102886.68;;;-0.99;100.00
34241;BME280;20503;50.200;19.508;2023-02-11T04:43:17;102902.95;;;-1.02;100.00
34241;BME280;20503;50.200;19.508;2023-02-11T04:48:25;102905.23;;;-0.94;100.00
34241;BME280;20503;50.200;19.508;2023-02-11T04:53:34;102913.04;;;-0.90;100.00
34241;BME280;20503;50.200;19.508;2023-02-11T04:58:40;102901.87;;;-0.82;100.00
34241;BME280;20503;50.200;19.508;2023-02-11T05:03:48;102909.05;;;-0.83;100.00
34241;BME280;20503;50.200;19.508;2023-02-11T05:08:57;102879.06;;;-0.75;100.00
34241;BME280;20503;50.200;19.508;2023-02-11T05:14:04;102901.45;;;-0.75;100.00
34241;BME280;20503;50.200;19.508;2023-02-11T05:19:11;102895.90;;;-0.72;100.00
34241;BME280;20503;50.200;19.508;2023-02-11T05:24:19;102895.90;;;-0.72;100.00
34241;BME280;20503;50.200;19.508;2023-02-11T05:29:28;102885.76;;;-0.67;100.00
34241;BME280;20503;50.200;19.508;2023-02-11T05:34:36;102881.97;;;-0.63;100.00
34241;BME280;20503;50.200;19.508;2023-02-11T05:39:43;102869.62;;;-0.67;100.00
34241;BME280;20503;50.200;19.508;2023-02-11T05:44:51;102891.34;;;-0.54;100.00
34241;BME280;20503;50.200;19.508;2023-02-11T05:49:59;102901.91;;;-0.51;100.00
34241;BME280;20503;50.200;19.508;2023-02-11T05:55:07;102894.27;;;-0.43;100.00
34241;BME280;20503;50.200;19.508;2023-02-11T06:00:16;102876.15;;;-0.40;100.00
34241;BME280;20503;50.200;19.508;2023-02-11T06:05:26;102857.24;;;-0.38;100.00
34241;BME280;20503;50.200;19.508;2023-02-11T06:10:31;102840.22;;;-0.39;100.00
34241;BME280;20503;50.200;19.508;2023-02-11T06:15:40;102842.40;;;-0.30;100.00
34241;BME280;20503;50.200;19.508;2023-02-11T06:20:48;102826.26;;;-0.30;100.00
34241;BME280;20503;50.200;19.508;2023-02-11T06:26:00;102811.67;;;-0.26;100.00
34241;BME280;20503;50.200;19.508;2023-02-11T06:31:04;102801.67;;;-0.24;100.00
34241;BME280;20503;50.200;19.508;2023-02-11T06:36:17;102801.49;;;-0.21;100.00
34241;BME280;20503;50.200;19.508;2023-02-11T06:41:18;102790.38;;;-0.15;100.00
34241;BME280;20503;50.200;19.508;2023-02-11T06:46:26;102807.52;;;-0.02;100.00
34241;BME280;20503;50.200;19.508;2023-02-11T06:51:33;102799.09;;;0.04;100.00
34241;BME280;20503;50.200;19.508;2023-02-11T06:56:41;102810.37;;;0.10;100.00
34241;BME280;20503;50.200;19.508;2023-02-11T07:01:49;102812.87;;;0.13;100.00
34241;BME280;20503;50.200;19.508;2023-02-11T07:06:58;102827.55;;;0.08;100.00
34241;BME280;20503;50.200;19.508;2023-02-11T07:12:09;102835.09;;;0.17;100.00
34241;BME280;20503;50.200;19.508;2023-02-11T07:17:14;102823.56;;;0.29;100.00
34241;BME280;20503;50.200;19.508;2023-02-11T07:22:22;102812.71;;;0.30;100.00
34241;BME280;20503;50.200;19.508;2023-02-11T07:27:32;102822.59;;;0.30;100.00
34241;BME280;20503;50.200;19.508;2023-02-11T07:32:38;102802.70;;;0.32;100.00
34241;BME280;20503;50.200;19.508;2023-02-11T07:37:47;102804.84;;;0.41;100.00
34241;BME280;20503;50.200;19.508;2023-02-11T07:42:55;102797.36;;;0.60;100.00
34241;BME280;20503;50.200;19.508;2023-02-11T07:48:03;102806.66;;;0.97;100.00
34241;BME280;20503;50.200;19.508;2023-02-11T07:53:10;102810.23;;;1.11;100.00
34241;BME280;20503;50.200;19.508;2023-02-11T07:58:18;102808.05;;;1.71;100.00
34241;BME280;20503;50.200;19.508;2023-02-11T08:03:27;102790.49;;;2.29;100.00
34241;BME280;20503;50.200;19.508;2023-02-11T08:08:34;102777.10;;;2.65;100.00
34241;BME280;20503;50.200;19.508;2023-02-11T08:13:43;102773.59;;;2.88;100.00
34241;BME280;20503;50.200;19.508;2023-02-11T08:18:51;102797.91;;;3.13;100.00
34241;BME280;20503;50.200;19.508;2023-02-11T08:24:00;102788.35;;;3.32;100.00
34241;BME280;20503;50.200;19.508;2023-02-11T08:29:09;102785.77;;;3.54;100.00
34241;BME280;20503;50.200;19.508;2023-02-11T08:34:14;102794.92;;;3.41;100.00
34241;BME280;20503;50.200;19.508;2023-02-11T08:39:21;102803.45;;;3.70;100.00
34241;BME280;20503;50.200;19.508;2023-02-11T08:44:29;102770.75;;;4.08;80.50
34241;BME280;20503;50.200;19.508;2023-02-11T08:49:37;102778.13;;;3.00;83.82
34241;BME280;20503;50.200;19.508;2023-02-11T08:54:45;102767.23;;;2.76;85.04
34241;BME280;20503;50.200;19.508;2023-02-11T08:59:54;102769.42;;;2.71;85.42
34241;BME280;20503;50.200;19.508;2023-02-11T09:05:00;102770.84;;;2.64;86.08
34241;BME280;20503;50.200;19.508;2023-02-11T09:10:09;102757.19;;;2.66;85.82
34241;BME280;20503;50.200;19.508;2023-02-11T09:15:17;102750.38;;;2.60;86.27
34241;BME280;20503;50.200;19.508;2023-02-11T09:20:26;102761.96;;;2.75;85.25
34241;BME280;20503;50.200;19.508;2023-02-11T09:25:33;102782.19;;;2.69;86.52
34241;BME280;20503;50.200;19.508;2023-02-11T09:30:40;102800.24;;;2.81;84.49
34241;BME280;20503;50.200;19.508;2023-02-11T09:35:49;102789.41;;;2.69;85.05
34241;BME280;20503;50.200;19.508;2023-02-11T09:40:58;102796.68;;;2.68;84.96
34241;BME280;20503;50.200;19.508;2023-02-11T09:46:04;102805.65;;;2.81;85.57
34241;BME280;20503;50.200;19.508;2023-02-11T09:56:24;102797.63;;;2.80;84.51
34241;BME280;20503;50.200;19.508;2023-02-11T10:01:38;102791.58;;;2.89;85.10
34241;BME280;20503;50.200;19.508;2023-02-11T10:06:48;102782.49;;;2.90;83.81
34241;BME280;20503;50.200;19.508;2023-02-11T10:22:26;102745.53;;;3.14;84.05
34241;BME280;20503;50.200;19.508;2023-02-11T10:27:34;102740.16;;;3.37;82.58
34241;BME280;20503;50.200;19.508;2023-02-11T10:32:43;102706.10;;;3.22;82.86
34241;BME280;20503;50.200;19.508;2023-02-11T10:37:48;102692.69;;;3.44;83.09
34241;BME280;20503;50.200;19.508;2023-02-11T10:42:55;102671.01;;;3.67;80.41
34241;BME280;20503;50.200;19.508;2023-02-11T10:48:04;102659.03;;;3.59;79.59
34241;BME280;20503;50.200;19.508;2023-02-11T10:53:19;102641.47;;;3.64;80.65
34241;BME280;20503;50.200;19.508;2023-02-11T10:58:27;102625.16;;;3.88;79.73
34241;BME280;20503;50.200;19.508;2023-02-11T11:03:33;102594.53;;;4.09;78.38
34241;BME280;20503;50.200;19.508;2023-02-11T11:08:46;102599.96;;;4.20;77.68
34241;BME280;20503;50.200;19.508;2023-02-11T11:13:57;102604.84;;;4.59;76.59
34241;BME280;20503;50.200;19.508;2023-02-11T11:34:48;102624.38;;;3.64;82.23
34241;BME280;20503;50.200;19.508;2023-02-11T11:39:58;102631.71;;;3.51;83.51
34241;BME280;20503;50.200;19.508;2023-02-11T11:55:30;102641.82;;;3.26;84.64
34241;BME280;20503;50.200;19.508;2023-02-11T12:11:16;102642.97;;;3.11;92.28
34241;BME280;20503;50.200;19.508;2023-02-11T12:26:53;102638.13;;;3.03;98.23
34241;BME280;20503;50.200;19.508;2023-02-11T12:32:04;102635.70;;;3.11;100.00
34241;BME280;20503;50.200;19.508;2023-02-11T12:42:33;102607.55;;;2.67;100.00
34241;BME280;20503;50.200;19.508;2023-02-11T12:48:00;102568.27;;;2.50;100.00
34241;BME280;20503;50.200;19.508;2023-02-11T12:58:21;102578.70;;;2.31;100.00
34241;BME280;20503;50.200;19.508;2023-02-11T13:03:29;102565.06;;;2.33;100.00
34241;BME280;20503;50.200;19.508;2023-02-11T13:08:47;102558.27;;;2.40;100.00
34241;BME280;20503;50.200;19.508;2023-02-11T13:14:20;102567.45;;;2.37;100.00
34241;BME280;20503;50.200;19.508;2023-02-11T13:34:55;102526.04;;;2.37;100.00
34241;BME280;20503;50.200;19.508;2023-02-11T13:40:04;102480.12;;;2.37;100.00
34241;BME280;20503;50.200;19.508;2023-02-11T13:50:24;102473.12;;;2.34;100.00
34241;BME280;20503;50.200;19.508;2023-02-11T13:55:28;102483.62;;;2.26;100.00
34241;BME280;20503;50.200;19.508;2023-02-11T14:00:43;102477.70;;;2.21;100.00
34241;BME280;20503;50.200;19.508;2023-02-11T14:16:22;102531.91;;;2.31;100.00
34241;BME280;20503;50.200;19.508;2023-02-11T14:21:33;102549.94;;;2.30;100.00
34241;BME280;20503;50.200;19.508;2023-02-11T14:42:23;102572.81;;;2.01;100.00
34241;BME280;20503;50.200;19.508;2023-02-11T14:47:50;102572.48;;;1.93;100.00
34241;BME280;20503;50.200;19.508;2023-02-11T14:52:42;102546.70;;;1.77;100.00
34241;BME280;20503;50.200;19.508;2023-02-11T14:57:46;102562.46;;;1.71;100.00
34241;BME280;20503;50.200;19.508;2023-02-11T15:02:55;102549.39;;;1.65;100.00
34241;BME280;20503;50.200;19.508;2023-02-11T15:08:00;102545.41;;;1.58;100.00
34241;BME280;20503;50.200;19.508;2023-02-11T15:13:04;102553.82;;;1.53;100.00
34241;BME280;20503;50.200;19.508;2023-02-11T15:22:39;102562.26;;;1.49;100.00
34241;BME280;20503;50.200;19.508;2023-02-11T15:27:50;102554.34;;;1.46;100.00
34241;BME280;20503;50.200;19.508;2023-02-11T15:32:57;102574.20;;;1.45;100.00
34241;BME280;20503;50.200;19.508;2023-02-11T15:38:03;102585.22;;;1.42;100.00
34241;BME280;20503;50.200;19.508;2023-02-11T15:43:10;102577.43;;;1.37;100.00
34241;BME280;20503;50.200;19.508;2023-02-11T15:48:21;102576.80;;;1.34;100.00
34241;BME280;20503;50.200;19.508;2023-02-11T15:53:32;102596.84;;;1.30;100.00
34241;BME280;20503;50.200;19.508;2023-02-11T15:58:40;102576.58;;;1.24;100.00
34241;BME280;20503;50.200;19.508;2023-02-11T16:03:47;102586.39;;;1.25;100.00
34241;BME280;20503;50.200;19.508;2023-02-11T16:09:03;102596.29;;;1.25;100.00
34241;BME280;20503;50.200;19.508;2023-02-11T16:19:21;102596.39;;;1.23;100.00
34241;BME280;20503;50.200;19.508;2023-02-11T16:24:29;102609.88;;;1.23;100.00
34241;BME280;20503;50.200;19.508;2023-02-11T16:29:35;102598.14;;;1.24;100.00
34241;BME280;20503;50.200;19.508;2023-02-11T16:34:37;102608.27;;;1.21;100.00
34241;BME280;20503;50.200;19.508;2023-02-11T16:39:39;102604.81;;;1.19;100.00
34241;BME280;20503;50.200;19.508;2023-02-11T16:44:46;102614.41;;;1.23;100.00
34241;BME280;20503;50.200;19.508;2023-02-11T16:49:55;102617.88;;;1.25;100.00
34241;BME280;20503;50.200;19.508;2023-02-11T16:55:03;102625.87;;;1.26;100.00
34241;BME280;20503;50.200;19.508;2023-02-11T17:00:15;102636.52;;;1.28;100.00
34241;BME280;20503;50.200;19.508;2023-02-11T17:05:21;102649.80;;;1.31;100.00
34241;BME280;20503;50.200;19.508;2023-02-11T17:10:29;102638.05;;;1.32;100.00
34241;BME280;20503;50.200;19.508;2023-02-11T17:15:34;102634.50;;;1.31;100.00
34241;BME280;20503;50.200;19.508;2023-02-11T17:20:42;102631.71;;;1.33;100.00
34241;BME280;20503;50.200;19.508;2023-02-11T17:25:54;102636.31;;;1.31;100.00
34241;BME280;20503;50.200;19.508;2023-02-11T17:30:59;102645.29;;;1.31;100.00
34241;BME280;20503;50.200;19.508;2023-02-11T17:36:08;102640.73;;;1.32;100.00
34241;BME280;20503;50.200;19.508;2023-02-11T17:41:14;102643.88;;;1.38;100.00
34241;BME280;20503;50.200;19.508;2023-02-11T17:51:53;102634.44;;;1.45;100.00
34241;BME280;20503;50.200;19.508;2023-02-11T17:56:54;102631.42;;;1.50;100.00
34241;BME280;20503;50.200;19.508;2023-02-11T18:01:56;102641.25;;;1.51;100.00
34241;BME280;20503;50.200;19.508;2023-02-11T18:06:57;102644.58;;;1.54;100.00
34241;BME280;20503;50.200;19.508;2023-02-11T18:12:01;102650.72;;;1.56;100.00
34241;BME280;20503;50.200;19.508;2023-02-11T18:17:09;102653.23;;;1.59;100.00
34241;BME280;20503;50.200;19.508;2023-02-11T18:22:17;102654.84;;;1.62;100.00
34241;BME280;20503;50.200;19.508;2023-02-11T18:27:24;102658.86;;;1.69;100.00
34241;BME280;20503;50.200;19.508;2023-02-11T18:32:32;102655.19;;;1.70;100.00
34241;BME280;20503;50.200;19.508;2023-02-11T18:37:41;102660.91;;;1.78;100.00
34241;BME280;20503;50.200;19.508;2023-02-11T18:42:47;102677.02;;;1.79;100.00
34241;BME280;20503;50.200;19.508;2023-02-11T18:47:55;102667.93;;;1.80;100.00
34241;BME280;20503;50.200;19.508;2023-02-11T18:53:03;102681.13;;;1.84;100.00
34241;BME280;20503;50.200;19.508;2023-02-11T18:58:12;102675.52;;;1.87;100.00
34241;BME280;20503;50.200;19.508;2023-02-11T19:03:23;102671.62;;;1.91;100.00
34241;BME280;20503;50.200;19.508;2023-02-11T19:08:28;102680.47;;;1.93;100.00
34241;BME280;20503;50.200;19.508;2023-02-11T19:13:36;102681.23;;;1.95;100.00
34241;BME280;20503;50.200;19.508;2023-02-11T19:18:44;102682.77;;;1.99;100.00
34241;BME280;20503;50.200;19.508;2023-02-11T19:23:52;102679.10;;;2.00;100.00
34241;BME280;20503;50.200;19.508;2023-02-11T19:29:00;102693.21;;;2.04;100.00
34241;BME280;20503;50.200;19.508;2023-02-11T19:34:10;102701.00;;;2.08;100.00
34241;BME280;20503;50.200;19.508;2023-02-11T19:39:16;102697.67;;;2.17;100.00
34241;BME280;20503;50.200;19.508;2023-02-11T19:44:24;102693.03;;;2.19;100.00
34241;BME280;20503;50.200;19.508;2023-02-11T19:49:32;102695.61;;;2.21;100.00
34241;BME280;20503;50.200;19.508;2023-02-11T19:54:40;102690.98;;;2.23;100.00
34241;BME280;20503;50.200;19.508;2023-02-11T19:59:48;102697.57;;;2.31;100.00
34241;BME280;20503;50.200;19.508;2023-02-11T20:04:57;102698.41;;;2.32;100.00
34241;BME280;20503;50.200;19.508;2023-02-11T20:10:06;102698.85;;;2.38;100.00
34241;BME280;20503;50.200;19.508;2023-02-11T20:15:13;102698.62;;;2.41;100.00
34241;BME280;20503;50.200;19.508;2023-02-11T20:20:21;102699.83;;;2.37;100.00
34241;BME280;20503;50.200;19.508;2023-02-11T20:25:29;102704.26;;;2.38;100.00
34241;BME280;20503;50.200;19.508;2023-02-11T20:30:37;102701.63;;;2.37;100.00
34241;BME280;20503;50.200;19.508;2023-02-11T20:41:07;102706.08;;;2.38;100.00
34241;BME280;20503;50.200;19.508;2023-02-11T20:46:15;102710.55;;;2.39;100.00
34241;BME280;20503;50.200;19.508;2023-02-11T20:51:21;102724.98;;;2.38;100.00
34241;BME280;20503;50.200;19.508;2023-02-11T20:56:26;102728.58;;;2.38;100.00
34241;BME280;20503;50.200;19.508;2023-02-11T21:01:33;102727.69;;;2.38;100.00
34241;BME280;20503;50.200;19.508;2023-02-11T21:06:38;102726.10;;;2.35;100.00
34241;BME280;20503;50.200;19.508;2023-02-11T21:11:41;102752.23;;;2.35;100.00
34241;BME280;20503;50.200;19.508;2023-02-11T21:16:49;102750.41;;;2.35;100.00
34241;BME280;20503;50.200;19.508;2023-02-11T21:21:57;102754.71;;;2.38;100.00
34241;BME280;20503;50.200;19.508;2023-02-11T21:27:04;102757.55;;;2.36;100.00
34241;BME280;20503;50.200;19.508;2023-02-11T21:32:13;102757.55;;;2.36;100.00
34241;BME280;20503;50.200;19.508;2023-02-11T21:37:21;102758.38;;;2.37;100.00
34241;BME280;20503;50.200;19.508;2023-02-11T21:42:28;102771.80;;;2.38;100.00
34241;BME280;20503;50.200;19.508;2023-02-11T21:47:36;102772.11;;;2.46;100.00
34241;BME280;20503;50.200;19.508;2023-02-11T21:52:44;102778.84;;;2.53;100.00
34241;BME280;20503;50.200;19.508;2023-02-11T21:57:52;102789.65;;;2.53;100.00
34241;BME280;20503;50.200;19.508;2023-02-11T22:03:00;102793.20;;;2.54;100.00
34241;BME280;20503;50.200;19.508;2023-02-11T22:08:07;102788.02;;;2.51;100.00
34241;BME280;20503;50.200;19.508;2023-02-11T22:13:16;102796.03;;;2.52;100.00
34241;BME280;20503;50.200;19.508;2023-02-11T22:18:24;102804.88;;;2.54;100.00
34241;BME280;20503;50.200;19.508;2023-02-11T22:23:32;102808.88;;;2.61;100.00
34241;BME280;20503;50.200;19.508;2023-02-11T22:28:40;102814.09;;;2.64;100.00
34241;BME280;20503;50.200;19.508;2023-02-11T22:33:48;102821.85;;;2.69;100.00
34241;BME280;20503;50.200;19.508;2023-02-11T22:38:59;102832.88;;;2.78;100.00
34241;BME280;20503;50.200;19.508;2023-02-11T22:44:03;102834.83;;;2.76;100.00
34241;BME280;20503;50.200;19.508;2023-02-11T22:49:13;102848.02;;;2.81;100.00
34241;BME280;20503;50.200;19.508;2023-02-11T22:54:20;102851.71;;;2.80;100.00
34241;BME280;20503;50.200;19.508;2023-02-11T22:59:29;102848.90;;;2.81;100.00
34241;BME280;20503;50.200;19.508;2023-02-11T23:04:36;102855.82;;;2.85;100.00
34241;BME280;20503;50.200;19.508;2023-02-11T23:09:44;102857.44;;;2.88;100.00
34241;BME280;20503;50.200;19.508;2023-02-11T23:14:52;102849.11;;;3.03;100.00
34241;BME280;20503;50.200;19.508;2023-02-11T23:20:00;102862.50;;;3.05;100.00
34241;BME280;20503;50.200;19.508;2023-02-11T23:25:08;102854.06;;;3.09;100.00
34241;BME280;20503;50.200;19.508;2023-02-11T23:30:16;102853.65;;;3.15;100.00
34241;BME280;20503;50.200;19.508;2023-02-11T23:35:24;102853.75;;;3.14;100.00
34241;BME280;20503;50.200;19.508;2023-02-11T23:40:32;102862.29;;;3.20;100.00
34241;BME280;20503;50.200;19.508;2023-02-11T23:45:39;102862.52;;;3.17;100.00
34241;BME280;20503;50.200;19.508;2023-02-11T23:50:48;102870.86;;;3.14;100.00
34241;BME280;20503;50.200;19.508;2023-02-11T23:55:55;102868.34;;;3.11;100.00
